createdAt,value
2023-03-25T11:20:50.026Z,0.60
2023-03-25T11:22:54.477Z,0.70
2023-03-25T11:25:08.042Z,0.98
2023-03-25T11:27:10.934Z,0.80
2023-03-25T11:29:18.433Z,1.10
2023-03-25T11:31:23.706Z,0.90
2023-03-25T11:33:27.157Z,0.70
2023-03-25T11:35:31.491Z,0.70
2023-03-25T11:37:49.048Z,0.90
2023-03-25T11:39:56.006Z,0.80
2023-03-25T11:41:58.717Z,0.70
2023-03-25T11:44:01.930Z,0.63
2023-03-25T11:46:11.585Z,0.88
2023-03-25T11:48:19.471Z,0.60
2023-03-25T11:50:26.806Z,0.63
2023-03-25T11:52:45.183Z,0.60
2023-03-25T11:54:47.256Z,0.60
2023-03-25T11:56:50.700Z,0.60
2023-03-25T11:58:57.333Z,0.80
2023-03-25T12:01:07.319Z,0.77
2023-03-25T12:03:12.152Z,0.65
2023-03-25T12:05:16.676Z,0.60
2023-03-25T12:07:21.610Z,0.82
2023-03-25T12:09:24.119Z,0.50
2023-03-25T12:11:42.860Z,0.60
2023-03-25T12:14:12.359Z,0.70
2023-03-25T12:16:23.354Z,0.60
2023-03-25T12:18:46.496Z,0.50
2023-03-25T12:20:51.421Z,0.73
2023-03-25T12:22:53.443Z,0.70
2023-03-25T12:25:09.638Z,0.60
2023-03-25T12:27:42.421Z,0.50
2023-03-25T12:29:58.959Z,0.60
2023-03-25T12:32:11.996Z,0.85
2023-03-25T12:36:35.542Z,0.80
2023-03-25T12:39:01.581Z,0.95
2023-03-25T12:41:11.861Z,0.70
2023-03-25T12:43:30.255Z,0.90
2023-03-25T12:45:45.910Z,0.70
2023-03-25T12:47:51.156Z,0.68
2023-03-25T12:50:23.592Z,0.70
2023-03-25T12:52:55.070Z,0.90
2023-03-25T12:55:23.713Z,0.80
2023-03-25T12:57:45.555Z,0.60
2023-03-25T12:59:53.808Z,0.80
2023-03-25T13:02:10.353Z,0.80
2023-03-25T13:04:31.169Z,0.70
2023-03-25T13:06:46.410Z,0.70
2023-03-25T13:08:52.446Z,0.80
2023-03-25T13:11:03.334Z,0.70
2023-03-25T13:13:18.127Z,0.60
2023-03-25T13:15:49.216Z,0.73
2023-03-25T13:18:16.179Z,0.70
2023-03-25T13:20:19.528Z,0.80
2023-03-25T13:22:27.631Z,0.68
2023-03-25T13:24:38.293Z,0.70
2023-03-25T13:26:44.555Z,0.65
2023-03-25T13:28:56.143Z,0.57
2023-03-25T13:30:58.769Z,0.60
2023-03-25T13:33:28.502Z,0.55
2023-03-25T13:35:39.036Z,0.65
2023-03-25T13:37:49.409Z,0.52
2023-03-25T13:39:57.821Z,0.60
2023-03-25T13:42:12.454Z,0.68
2023-03-25T13:44:19.817Z,0.60
2023-03-25T13:46:31.886Z,0.63
2023-03-25T13:48:51.251Z,0.50
2023-03-25T13:50:53.255Z,0.70
2023-03-25T13:53:04.621Z,0.50
2023-03-25T13:55:16.991Z,0.60
2023-03-25T13:57:36.503Z,0.50
2023-03-25T14:00:14.432Z,0.70
2023-03-25T14:02:34.901Z,0.52
2023-03-25T14:04:51.999Z,0.60
2023-03-25T14:07:05.162Z,0.70
2023-03-25T14:09:39.963Z,0.73
2023-03-25T14:11:58.286Z,0.70
2023-03-25T14:14:07.161Z,0.65
2023-03-25T14:16:18.482Z,0.70
2023-03-25T14:18:21.074Z,0.60
2023-03-25T14:20:28.516Z,0.75
2023-03-25T14:22:32.586Z,0.80
2023-03-25T14:24:39.132Z,0.73
2023-03-25T14:26:52.166Z,0.85
2023-03-25T14:31:14.715Z,0.77
2023-03-25T14:33:19.207Z,0.80
2023-03-25T14:35:33.259Z,0.73
2023-03-25T14:37:35.278Z,0.65
2023-03-25T14:39:41.016Z,0.75
2023-03-25T14:41:59.249Z,0.80
2023-03-25T14:44:18.464Z,0.98
2023-03-25T14:46:23.952Z,0.75
2023-03-25T14:48:44.928Z,0.60
2023-03-25T14:50:48.795Z,0.77
2023-03-25T14:52:56.289Z,0.70
2023-03-25T14:55:01.635Z,0.70
2023-03-25T14:57:23.657Z,0.50
2023-03-25T14:59:31.008Z,0.68
2023-03-25T15:01:37.028Z,0.70
2023-03-25T15:03:48.805Z,0.50
2023-03-25T15:05:58.200Z,0.60
2023-03-25T15:08:04.894Z,0.50
2023-03-25T15:10:07.828Z,0.60
2023-03-25T15:12:16.076Z,0.50
2023-03-25T15:14:24.691Z,0.70
2023-03-25T15:16:47.598Z,0.70
2023-03-25T15:18:49.667Z,0.60
2023-03-25T15:20:51.873Z,0.60
2023-03-25T15:23:15.681Z,0.60
2023-03-25T15:25:19.651Z,0.73
2023-03-25T15:28:02.748Z,0.60
2023-03-25T15:30:32.278Z,0.87
2023-03-25T15:33:01.575Z,0.60
2023-03-25T15:35:12.050Z,0.70
2023-03-25T15:37:46.551Z,0.70
2023-03-25T15:40:15.421Z,0.75
2023-03-25T15:42:45.841Z,0.73
2023-03-25T15:45:20.283Z,0.80
2023-03-25T15:47:34.071Z,0.80
2023-03-25T15:49:41.882Z,0.90
2023-03-25T15:51:51.683Z,0.70
2023-03-25T15:54:03.895Z,0.95
2023-03-25T15:56:13.591Z,0.80
2023-03-25T15:58:30.496Z,0.60
2023-03-25T16:00:38.729Z,0.60
2023-03-25T16:03:01.974Z,0.80
2023-03-25T16:07:09.652Z,0.80
2023-03-25T16:11:28.301Z,0.80
2023-03-25T16:13:30.579Z,0.70
2023-03-25T16:15:36.041Z,0.93
2023-03-25T16:17:37.890Z,0.75
2023-03-25T16:19:49.594Z,0.80
2023-03-25T16:21:54.357Z,0.70
2023-03-25T16:23:59.515Z,0.90
2023-03-25T16:26:01.445Z,0.90
2023-03-25T16:28:13.268Z,0.77
2023-03-25T16:30:39.755Z,0.77
2023-03-25T16:32:41.859Z,0.80
2023-03-25T16:34:43.623Z,0.82
2023-03-25T16:36:47.476Z,0.70
2023-03-25T16:38:49.340Z,0.80
2023-03-25T16:40:52.163Z,1.10
2023-03-25T16:42:55.600Z,0.73
2023-03-25T16:44:57.389Z,1.10
2023-03-25T16:47:00.798Z,0.52
2023-03-25T16:49:02.869Z,0.70
2023-03-25T16:51:16.804Z,0.80
2023-03-25T16:53:18.797Z,0.65
2023-03-25T16:55:41.965Z,0.70
2023-03-25T16:57:46.481Z,0.85
2023-03-25T16:59:51.176Z,0.80
2023-03-25T17:01:56.137Z,1.00
2023-03-25T17:04:19.351Z,0.82
2023-03-25T17:06:35.647Z,0.75
2023-03-25T17:08:37.480Z,1.00
2023-03-25T17:10:52.161Z,0.90
2023-03-25T17:13:08.213Z,0.70
2023-03-25T17:15:16.221Z,0.95
2023-03-25T17:17:33.149Z,0.82
2023-03-25T17:19:36.370Z,0.70
2023-03-25T17:21:57.585Z,0.85
2023-03-25T17:24:20.392Z,1.02
2023-03-25T17:26:25.112Z,1.05
2023-03-25T17:28:41.345Z,0.93
2023-03-25T17:30:45.859Z,1.05
2023-03-25T17:32:49.633Z,0.80
2023-03-25T17:35:07.101Z,0.63
2023-03-25T17:37:13.796Z,0.80
2023-03-25T17:39:23.722Z,0.80
2023-03-25T17:41:30.961Z,0.90
2023-03-25T17:43:35.542Z,0.60
2023-03-25T17:45:37.336Z,0.70
2023-03-25T17:47:39.197Z,0.70
2023-03-25T17:49:41.160Z,0.60
2023-03-25T17:51:43.397Z,0.80
2023-03-25T17:53:45.489Z,0.90
2023-03-25T17:55:48.141Z,0.70
2023-03-25T17:57:50.021Z,0.80
2023-03-25T17:59:51.782Z,0.80
2023-03-25T18:01:53.846Z,1.10
2023-03-25T18:03:55.879Z,0.70
2023-03-25T18:06:00.782Z,0.70
2023-03-25T18:08:03.840Z,1.08
2023-03-25T18:10:17.951Z,0.90
2023-03-25T18:12:19.901Z,1.00
2023-03-25T18:14:23.390Z,0.90
2023-03-25T18:16:25.502Z,1.00
2023-03-25T18:18:27.443Z,1.02
2023-03-25T18:20:32.227Z,0.95
2023-03-25T18:22:33.970Z,0.85
2023-03-25T18:24:36.295Z,0.90
2023-03-25T18:26:38.356Z,1.08
2023-03-25T18:28:42.903Z,1.00
2023-03-25T18:30:50.852Z,1.02
2023-03-25T18:32:52.994Z,0.90
2023-03-25T18:34:55.645Z,1.00
2023-03-25T18:36:58.010Z,0.90
2023-03-25T18:38:59.898Z,1.17
2023-03-25T18:41:02.546Z,1.13
2023-03-25T18:43:04.549Z,0.90
2023-03-25T18:45:06.779Z,1.00
2023-03-25T18:47:10.113Z,0.90
2023-03-25T18:49:18.166Z,0.80
2023-03-25T18:51:19.919Z,0.80
2023-03-25T18:53:24.165Z,1.05
2023-03-25T18:55:28.964Z,1.05
2023-03-25T18:57:31.018Z,0.82
2023-03-25T18:59:32.885Z,1.00
2023-03-25T19:01:35.057Z,1.10
2023-03-25T19:03:39.835Z,0.80
2023-03-25T19:05:41.967Z,1.08
2023-03-25T19:07:43.787Z,1.13
2023-03-25T19:09:45.726Z,1.60
2023-03-25T19:11:48.108Z,1.13
2023-03-25T19:13:51.547Z,1.00
2023-03-25T19:15:53.267Z,0.80
2023-03-25T19:17:58.518Z,1.20
2023-03-25T19:20:00.322Z,1.00
2023-03-25T19:22:02.083Z,1.15
2023-03-25T19:24:04.002Z,1.20
2023-03-25T19:26:05.887Z,1.20
2023-03-25T19:28:08.398Z,1.27
2023-03-25T19:30:13.434Z,1.10
2023-03-25T19:32:15.312Z,1.00
2023-03-25T19:34:18.399Z,1.20
2023-03-25T19:36:23.124Z,1.80
2023-03-25T19:38:25.198Z,1.20
2023-03-25T19:40:28.385Z,1.00
2023-03-25T19:42:30.330Z,0.93
2023-03-25T19:44:32.114Z,1.00
2023-03-25T19:46:35.025Z,1.10
2023-03-25T19:48:36.871Z,1.20
2023-03-25T19:50:40.839Z,1.40
2023-03-25T19:52:43.600Z,0.93
2023-03-25T19:58:50.510Z,1.17
2023-03-25T20:00:53.077Z,1.23
2023-03-25T20:03:02.138Z,1.20
2023-03-25T20:05:05.044Z,0.98
2023-03-25T20:09:10.575Z,1.42
2023-03-25T20:11:12.402Z,1.10
2023-03-25T20:13:14.237Z,1.30
2023-03-25T20:15:17.673Z,1.20
2023-03-25T20:17:19.481Z,1.30
2023-03-25T20:19:21.316Z,1.10
2023-03-25T20:21:24.786Z,1.30
2023-03-25T20:23:26.604Z,1.42
2023-03-25T20:25:28.442Z,1.27
2023-03-25T20:27:31.034Z,1.40
2023-03-25T20:29:32.818Z,1.95
2023-03-25T20:31:34.889Z,1.13
2023-03-25T20:33:36.712Z,1.17
2023-03-25T20:35:38.675Z,1.30
2023-03-25T20:37:42.163Z,1.20
2023-03-25T20:39:44.548Z,1.10
2023-03-25T20:41:46.607Z,1.67
2023-03-25T20:43:48.382Z,1.48
2023-03-25T20:45:55.670Z,1.30
2023-03-25T20:47:58.275Z,1.33
2023-03-25T20:50:00.206Z,1.10
2023-03-25T20:52:01.934Z,1.43
2023-03-25T20:54:04.138Z,1.20
2023-03-25T20:56:06.015Z,0.98
2023-03-25T20:58:08.811Z,1.30
2023-03-25T21:00:18.130Z,1.10
2023-03-25T21:02:21.399Z,1.30
2023-03-25T21:04:24.408Z,1.52
2023-03-25T21:06:28.633Z,1.60
2023-03-25T21:08:30.602Z,1.27
2023-03-25T21:10:32.462Z,1.30
2023-03-25T21:12:43.712Z,1.30
2023-03-25T21:14:46.610Z,1.30
2023-03-25T21:16:48.677Z,1.10
2023-03-25T21:18:51.221Z,1.40
2023-03-25T21:20:54.773Z,1.45
2023-03-25T21:22:59.044Z,1.17
2023-03-25T21:25:00.870Z,1.30
2023-03-25T21:27:03.144Z,1.60
2023-03-25T21:29:04.865Z,1.35
2023-03-25T21:31:16.932Z,1.38
2023-03-25T21:33:18.702Z,1.10
2023-03-25T21:35:20.538Z,1.60
2023-03-25T21:37:22.276Z,1.63
2023-03-25T21:39:24.275Z,1.55
2023-03-25T21:41:27.369Z,1.45
2023-03-25T21:43:29.405Z,1.33
2023-03-25T21:45:33.905Z,1.33
2023-03-25T21:47:36.634Z,1.30
2023-03-25T21:49:42.234Z,1.20
2023-03-25T21:51:44.311Z,1.20
2023-03-25T21:53:47.155Z,1.33
2023-03-25T21:55:50.148Z,1.27
2023-03-25T21:57:51.899Z,1.60
2023-03-25T21:59:55.242Z,1.20
2023-03-25T22:01:57.062Z,1.13
2023-03-25T22:04:00.258Z,1.00
2023-03-25T22:06:06.538Z,1.30
2023-03-25T22:08:09.359Z,1.40
2023-03-25T22:10:11.720Z,1.50
2023-03-25T22:12:13.577Z,1.48
2023-03-25T22:14:15.530Z,1.70
2023-03-25T22:16:19.627Z,1.73
2023-03-25T22:18:21.461Z,1.50
2023-03-25T22:20:23.477Z,1.73
2023-03-25T22:22:25.304Z,1.10
2023-03-25T22:24:28.767Z,1.40
2023-03-25T22:26:33.818Z,1.10
2023-03-25T22:28:36.566Z,1.30
2023-03-25T22:32:40.471Z,1.58
2023-03-25T22:34:42.286Z,1.33
2023-03-25T22:36:49.690Z,1.50
2023-03-25T22:38:52.154Z,1.23
2023-03-25T22:40:53.954Z,1.20
2023-03-25T22:42:55.903Z,1.13
2023-03-25T22:44:57.780Z,1.63
2023-03-25T22:46:59.736Z,1.52
2023-03-25T22:49:01.587Z,1.50
2023-03-25T22:51:03.429Z,1.20
2023-03-25T22:53:05.325Z,1.67
2023-03-25T22:55:08.014Z,1.30
2023-03-25T22:59:13.216Z,1.30
2023-03-25T23:01:21.933Z,1.33
2023-03-25T23:03:25.311Z,1.30
2023-03-25T23:05:27.083Z,1.38
2023-03-25T23:07:28.883Z,1.42
2023-03-25T23:09:43.842Z,1.20
2023-03-25T23:11:46.316Z,1.13
2023-03-25T23:13:54.159Z,1.52
2023-03-25T23:16:07.825Z,1.20
2023-03-25T23:18:10.397Z,1.30
2023-03-25T23:20:12.175Z,1.40
2023-03-25T23:22:16.546Z,1.38
2023-03-25T23:24:18.322Z,1.65
2023-03-25T23:26:29.176Z,1.20
2023-03-25T23:28:34.470Z,1.20
2023-03-25T23:30:36.262Z,1.20
2023-03-25T23:32:39.341Z,1.27
2023-03-25T23:34:42.880Z,1.30
2023-03-25T23:36:46.255Z,1.30
2023-03-25T23:38:50.801Z,1.50
2023-03-25T23:41:04.573Z,1.35
2023-03-25T23:43:06.629Z,1.50
2023-03-25T23:45:09.036Z,1.60
2023-03-25T23:47:11.084Z,1.55
2023-03-25T23:49:13.476Z,1.35
2023-03-25T23:51:18.014Z,1.50
2023-03-25T23:53:20.410Z,1.40
2023-03-25T23:55:23.493Z,1.50
2023-03-25T23:57:25.410Z,1.17
2023-03-25T23:59:27.184Z,1.33
